Hovedside
METAR-TAF:

METAR-TAF

Lufthavner :

London Ashford lufthavn

Lydd, England

breddegrad: 50-57N, lengdegrad: 000-56E, høyde over havet: 3 m

Gjeldene værobservasjon

Denne rapporten ble laget for 19 minutter siden, klokken 14:50 UTC
Vind 7 kt fra Nordøst
Temperatur 9°C
Luftfuktighet 87%
Trykk 1029 hPa
Sikt 10 km eller mer
Få skyer i en høyde av 1400 ft
Brutte skyer i en høyde av 2900 ft

METAR: EGMD 231450Z 05007KT 9999 FEW014 BKN029 09/07 Q1029

Tid: 15:09 (15:09 UTC)

Varsel

Denne rapporten ble laget for 1 time og 12 minutter siden, klokken 13:57 UTC
Varsel gyldig fra 23. klokken 15 UTC til 23. klokken 24 UTC
Vind 6 kt fra Øst-nordøst
Sikt 10 km eller mer
Brutte skyer i en høyde av 1600 ft
Sannsynlighet 30% :
Midlertidig
fra 23. klokken 15 UTC til 23. klokken 24 UTC
Sikt: 8000 m
Brutte skyer i en høyde av 1200 ft

TAF: EGMD 231357Z 2315/2324 06006KT 9999 BKN016 PROB30 TEMPO 2315/2324 8000 BKN012

Værobservasjoner og værvarsel for over 4000 flyplasser (METAR- og TAF-rapporter).

Tilgjengelige stasjoner er representert av de røde og gule prikkene på kartet.

Hold musepekeren over prikken for å se navnet på stasjonen.

Klikk så for å se værobservasjoner og -varsler.

For å forandre kartet kan du klikke på den grønne knappen med svart kryss for å zoome inn, på den grønne knappen med strek for å zoome ut, eller på de grønne pilene for å se tilstøtende kart.


METAR-TAF: